Time;durP1;ratioP1;P1;durP2;ratioP2;P2;SDS_P1;SDS_P2;PMS_P1;PMS_P2;Temp;Humidity;BMP_temperature;BMP_pressure;BME280_temperature;BME280_humidity;BME280_pressure;Samples;Min_cycle;Max_cycle;Signal;HPM_P1;HPM_P2
2024/04/08 00:01:35;;;;;;;8.93;1.70;;;;;;;8.18;70.98;100938.88;5047771;28;20288;-77
2024/04/08 00:04:02;;;;;;;6.83;2.03;;;;;;;8.18;71.45;100944.97;5049327;28;20625;-77
2024/04/08 00:06:27;;;;;;;5.60;1.57;;;;;;;8.16;71.30;100940.63;5046133;28;20198;-77
2024/04/08 00:08:56;;;;;;;7.47;2.10;;;;;;;8.15;71.47;100944.13;5049968;28;20198;-76
2024/04/08 00:11:22;;;;;;;8.40;2.27;;;;;;;8.14;71.34;100947.63;5045953;28;20202;-77
2024/04/08 00:13:49;;;;;;;5.23;1.90;;;;;;;8.14;71.25;100947.63;5042121;28;20211;-77
2024/04/08 00:16:15;;;;;;;8.43;1.80;;;;;;;8.12;71.26;100938.94;5045428;28;20237;-75
2024/04/08 00:18:41;;;;;;;7.27;1.70;;;;;;;8.12;71.22;100946.78;5044474;28;20241;-78
2024/04/08 00:21:07;;;;;;;4.40;1.73;;;;;;;8.10;71.40;100941.56;5049578;28;20622;-76
2024/04/08 00:23:35;;;;;;;5.07;1.80;;;;;;;8.09;71.30;100942.44;5046117;28;20706;-77
2024/04/08 00:26:04;;;;;;;9.97;1.90;;;;;;;8.00;71.50;100935.59;5046120;28;20199;-77
2024/04/08 00:28:33;;;;;;;7.03;2.00;;;;;;;8.08;71.71;100951.16;5046663;28;20205;-76
2024/04/08 00:31:02;;;;;;;8.30;1.60;;;;;;;8.08;71.67;100951.16;5045153;28;20201;-76
2024/04/08 00:33:29;;;;;;;7.50;2.27;;;;;;;8.07;71.53;100951.16;5051270;28;20214;-77
2024/04/08 00:35:55;;;;;;;9.33;2.13;;;;;;;8.04;71.83;100941.63;5046943;28;20228;-78
2024/04/08 00:38:22;;;;;;;6.77;1.70;;;;;;;8.04;71.79;100935.56;5043362;28;20229;-74
2024/04/08 00:40:48;;;;;;;5.97;1.77;;;;;;;8.05;71.73;100940.75;5043114;28;20215;-77
2024/04/08 00:43:17;;;;;;;5.70;2.03;;;;;;;8.04;71.75;100936.41;5046730;28;20338;-77
2024/04/08 00:45:46;;;;;;;5.13;1.53;;;;;;;8.04;71.71;100943.38;5048959;28;20615;-75
2024/04/08 00:48:14;;;;;;;4.20;2.17;;;;;;;8.03;71.76;100945.13;5049051;28;20228;-75
2024/04/08 00:50:42;;;;;;;4.70;2.20;;;;;;;7.98;72.13;100936.47;5048739;28;20211;-76
2024/04/08 00:53:10;;;;;;;7.83;1.97;;;;;;;8.01;71.87;100933.84;5044137;28;20229;-77
2024/04/08 00:55:37;;;;;;;4.37;1.93;;;;;;;8.00;72.02;100934.72;5050347;28;20217;-77
2024/04/08 00:58:05;;;;;;;5.63;1.63;;;;;;;7.99;72.03;100938.19;5048339;28;20193;-76
2024/04/08 01:00:33;;;;;;;5.77;2.33;;;;;;;7.98;72.11;100941.69;5044248;28;20252;-76
2024/04/08 01:03:03;;;;;;;6.70;1.70;;;;;;;7.95;71.99;100931.28;5048957;28;20252;-75
2024/04/08 01:05:29;;;;;;;8.73;2.07;;;;;;;7.92;71.92;100932.19;5045936;28;20204;-77
2024/04/08 01:07:56;;;;;;;7.53;1.73;;;;;;;7.92;72.05;100939.13;5043660;28;20210;-76
2024/04/08 01:10:22;;;;;;;5.77;1.53;;;;;;;7.93;72.39;100941.72;5047080;28;20725;-77
2024/04/08 01:12:49;;;;;;;6.03;1.90;;;;;;;7.88;72.17;100934.81;5047163;28;20239;-75
2024/04/08 01:15:16;;;;;;;5.83;1.60;;;;;;;7.93;72.38;100951.28;5048798;28;20198;-76
2024/04/08 01:17:49;;;;;;;4.57;1.47;;;;;;;7.88;72.54;100947.84;5044054;28;20659;-78
2024/04/08 01:20:15;;;;;;;7.27;2.40;;;;;;;7.89;71.99;100957.41;5045843;28;20244;-75
2024/04/08 01:22:43;;;;;;;5.77;1.60;;;;;;;7.89;72.44;100957.41;5039684;28;20197;-79
2024/04/08 01:25:10;;;;;;;6.47;1.87;;;;;;;7.89;72.14;100957.41;5046825;28;20265;-78
2024/04/08 01:27:37;;;;;;;7.90;2.17;;;;;;;7.88;72.29;100955.66;5048477;28;20206;-77
2024/04/08 01:30:04;;;;;;;5.93;1.70;;;;;;;7.88;72.12;100966.06;5046660;28;20200;-78
2024/04/08 01:32:31;;;;;;;6.43;1.90;;;;;;;7.87;72.27;100965.22;5051275;28;20217;-76
2024/04/08 01:34:57;;;;;;;6.67;2.03;;;;;;;7.87;72.51;100966.97;5045109;28;20201;-77
2024/04/08 01:37:24;;;;;;;8.33;2.23;;;;;;;7.86;72.42;100960.03;5048418;28;20203;-75
2024/04/08 01:39:50;;;;;;;6.10;1.97;;;;;;;7.86;72.28;100971.31;5044762;28;20207;-75
2024/04/08 01:42:18;;;;;;;5.77;1.73;;;;;;;7.86;72.32;100973.06;5046301;28;20241;-76
2024/04/08 01:44:45;;;;;;;7.13;1.83;;;;;;;7.86;72.43;100978.28;5051797;28;20328;-77
2024/04/08 01:47:12;;;;;;;5.73;1.73;;;;;;;7.81;72.33;100970.50;5045355;28;20206;-77
2024/04/08 01:49:38;;;;;;;7.00;1.77;;;;;;;7.85;72.74;100981.72;5051492;28;20202;-77
2024/04/08 01:52:06;;;;;;;6.90;1.87;;;;;;;7.84;72.56;100983.47;5054744;28;20265;-76
2024/04/08 01:54:32;;;;;;;9.20;2.70;;;;;;;7.84;72.72;100980.03;5044424;28;20236;-74
2024/04/08 01:56:59;;;;;;;5.33;2.23;;;;;;;7.83;72.85;100986.97;5048434;28;20198;-75
2024/04/08 01:59:26;;;;;;;5.03;1.30;;;;;;;7.84;72.87;100985.22;5047266;28;20198;-77
2024/04/08 02:01:53;;;;;;;6.70;2.10;;;;;;;7.83;72.83;100983.50;5050982;28;20205;-77
2024/04/08 02:04:19;;;;;;;6.57;1.73;;;;;;;7.82;72.44;100992.19;5048198;28;20646;-76
2024/04/08 02:06:46;;;;;;;5.03;1.90;;;;;;;7.82;72.55;100993.03;5052120;28;20225;-77
2024/04/08 02:09:12;;;;;;;4.83;1.93;;;;;;;7.81;72.62;100991.31;5047236;28;20700;-77
2024/04/08 02:11:39;;;;;;;5.87;1.60;;;;;;;7.82;72.76;101000.00;5047538;28;20210;-77
2024/04/08 02:14:05;;;;;;;7.27;2.07;;;;;;;7.81;72.62;100995.69;5048673;28;20210;-77
2024/04/08 02:16:34;;;;;;;6.80;2.13;;;;;;;7.80;73.00;101005.22;5048731;28;20217;-77
2024/04/08 02:18:59;;;;;;;5.87;1.97;;;;;;;7.79;72.45;101013.91;5047888;28;20667;-77
2024/04/08 02:21:26;;;;;;;12.37;2.40;;;;;;;7.78;72.48;101005.22;5046752;28;20213;-76
2024/04/08 02:23:52;;;;;;;4.13;1.60;;;;;;;7.78;72.50;101017.41;5050501;28;20217;-76
2024/04/08 02:26:21;;;;;;;7.37;1.83;;;;;;;7.77;72.55;101011.34;5046137;28;20309;-77
2024/04/08 02:28:47;;;;;;;7.83;1.90;;;;;;;7.77;72.76;101016.53;5047267;28;20280;-74
2024/04/08 02:31:14;;;;;;;7.57;1.63;;;;;;;7.77;72.53;101024.34;5043829;28;20254;-77
2024/04/08 02:33:41;;;;;;;7.30;1.97;;;;;;;7.76;72.73;101033.03;5045509;28;20592;-77
2024/04/08 02:36:08;;;;;;;8.87;2.20;;;;;;;7.75;72.53;101023.50;5050125;28;20208;-77
2024/04/08 02:38:35;;;;;;;5.47;1.53;;;;;;;7.74;72.70;101026.97;5046234;28;20206;-75
2024/04/08 02:41:01;;;;;;;4.10;1.53;;;;;;;7.72;72.50;101030.47;5041611;28;20230;-78
2024/04/08 02:43:28;;;;;;;8.77;1.93;;;;;;;7.72;72.60;101025.25;5051588;28;20299;-75
2024/04/08 02:45:54;;;;;;;4.10;1.60;;;;;;;7.71;72.85;101026.16;5043255;28;20204;-75
2024/04/08 02:48:22;;;;;;;7.87;1.63;;;;;;;7.70;72.46;101020.03;5047077;28;20205;-79
2024/04/08 02:50:51;;;;;;;7.07;1.70;;;;;;;7.70;72.87;101024.41;5049295;28;20246;-77
2024/04/08 02:53:18;;;;;;;5.80;1.80;;;;;;;7.69;72.67;101036.56;5051238;28;20322;-77
2024/04/08 02:55:44;;;;;;;10.70;2.07;;;;;;;7.68;72.58;101034.84;5047124;28;20213;-76
2024/04/08 02:58:11;;;;;;;5.83;1.73;;;;;;;7.67;72.72;101025.28;5044211;28;20218;-76
2024/04/08 03:00:38;;;;;;;3.87;2.00;;;;;;;7.68;73.09;101031.34;5046097;28;20211;-76
2024/04/08 03:03:05;;;;;;;5.20;1.60;;;;;;;7.66;73.07;101026.16;5043597;28;20233;-78
2024/04/08 03:05:31;;;;;;;13.17;2.37;;;;;;;7.64;73.04;101019.22;5047898;28;20211;-78
2024/04/08 03:08:00;;;;;;;6.33;1.73;;;;;;;7.63;72.80;101017.50;5044629;28;20626;-78
2024/04/08 03:10:26;;;;;;;6.30;1.63;;;;;;;7.62;72.90;101008.81;5044749;28;20206;-78
2024/04/08 03:12:53;;;;;;;6.70;1.80;;;;;;;7.62;72.99;101010.56;5048255;28;20203;-78
2024/04/08 03:15:19;;;;;;;4.37;1.53;;;;;;;7.59;72.96;100998.41;5042190;28;20231;-78
2024/04/08 03:17:46;;;;;;;6.13;1.80;;;;;;;7.60;73.08;100994.97;5044903;28;20220;-77
2024/04/08 03:20:12;;;;;;;5.90;1.80;;;;;;;7.59;73.10;101005.38;5047782;28;20596;-76
2024/04/08 03:22:39;;;;;;;6.53;1.70;;;;;;;7.59;72.96;101016.66;5043231;28;20270;-77
2024/04/08 03:25:06;;;;;;;7.63;1.90;;;;;;;7.47;72.89;100991.56;5046043;28;20228;-77
2024/04/08 03:27:33;;;;;;;7.40;2.00;;;;;;;7.56;72.79;100998.44;5040839;28;20609;-77
2024/04/08 03:29:59;;;;;;;5.00;1.50;;;;;;;7.54;72.78;100990.66;5047322;28;20205;-77
2024/04/08 03:32:26;;;;;;;7.27;2.23;;;;;;;7.51;72.95;100992.44;5043931;28;20507;-76
2024/04/08 03:34:52;;;;;;;8.50;1.60;;;;;;;7.50;73.21;100999.34;5044053;28;20605;-76
2024/04/08 03:37:25;;;;;;;9.80;1.60;;;;;;;7.51;72.69;101013.25;5050291;28;20617;-76
2024/04/08 03:39:52;;;;;;;7.43;1.87;;;;;;;7.50;72.84;101017.56;5047832;28;20663;-77
2024/04/08 03:42:22;;;;;;;11.47;2.00;;;;;;;7.50;73.37;101007.16;5045940;28;20231;-77
2024/04/08 03:44:49;;;;;;;7.40;2.90;;;;;;;7.48;72.96;101003.72;5049482;28;20225;-77
2024/04/08 03:47:17;;;;;;;9.83;1.60;;;;;;;7.44;73.19;100983.75;5046071;28;20198;-78
2024/04/08 03:49:43;;;;;;;6.37;1.73;;;;;;;7.47;73.46;100999.38;5044534;28;20194;-78
2024/04/08 03:52:10;;;;;;;7.33;2.30;;;;;;;7.47;73.36;100990.69;5047243;28;20223;-76
2024/04/08 03:54:36;;;;;;;8.43;2.00;;;;;;;7.46;73.07;101002.00;5051448;28;20299;-77
2024/04/08 03:57:03;;;;;;;11.23;2.20;;;;;;;7.45;73.52;101002.84;5050435;28;20228;-78
2024/04/08 03:59:31;;;;;;;8.13;2.20;;;;;;;7.44;73.04;100999.38;5050242;28;20199;-76
2024/04/08 04:01:58;;;;;;;7.17;1.90;;;;;;;7.44;73.39;100994.19;5050189;28;20204;-75
2024/04/08 04:04:24;;;;;;;6.43;1.83;;;;;;;7.44;73.27;101001.13;5050171;28;21192;-78
2024/04/08 04:06:51;;;;;;;6.93;1.87;;;;;;;7.43;72.92;101007.22;5053074;28;20223;-77
2024/04/08 04:09:17;;;;;;;5.77;1.90;;;;;;;7.43;73.16;101007.22;5047960;28;20215;-77
2024/04/08 04:11:44;;;;;;;9.50;2.03;;;;;;;7.37;73.37;100995.06;5054110;28;20202;-76
2024/04/08 04:14:10;;;;;;;6.27;2.47;;;;;;;7.36;73.39;100989.88;5055449;28;20200;-76
2024/04/08 04:16:38;;;;;;;6.47;1.70;;;;;;;7.38;73.24;101001.16;5054900;28;20197;-77
2024/04/08 04:19:04;;;;;;;7.73;2.30;;;;;;;7.37;73.50;100997.69;5049063;28;20237;-75
2024/04/08 04:21:31;;;;;;;8.20;1.60;;;;;;;7.33;73.07;100982.94;5050892;28;20282;-77
2024/04/08 04:23:57;;;;;;;7.77;1.50;;;;;;;7.34;73.12;100998.56;5050556;28;20231;-76
2024/04/08 04:26:24;;;;;;;6.07;1.93;;;;;;;7.31;73.33;100985.56;5050095;28;20211;-75
2024/04/08 04:28:50;;;;;;;10.43;2.43;;;;;;;7.31;73.21;100985.56;5051293;28;20694;-76
2024/04/08 04:31:17;;;;;;;5.67;2.10;;;;;;;7.30;73.30;100989.03;5051063;28;20208;-74
2024/04/08 04:33:44;;;;;;;7.30;1.83;;;;;;;7.30;73.66;100986.41;5049727;28;20204;-74
2024/04/08 04:36:11;;;;;;;8.30;1.60;;;;;;;7.28;73.34;100987.28;5051022;28;20216;-74
2024/04/08 04:38:37;;;;;;;6.17;2.10;;;;;;;7.27;73.35;100986.44;5045222;28;20205;-74
2024/04/08 04:41:06;;;;;;;6.93;1.90;;;;;;;7.26;73.71;100982.13;5052302;28;20785;-75
2024/04/08 04:43:32;;;;;;;5.43;2.23;;;;;;;7.25;73.32;100988.22;5046548;28;20319;-75
2024/04/08 04:46:00;;;;;;;5.40;2.27;;;;;;;7.24;73.59;100986.47;5049667;28;20232;-77
2024/04/08 04:48:26;;;;;;;4.43;1.50;;;;;;;7.22;73.33;100985.59;5055207;28;20653;-76
2024/04/08 04:50:54;;;;;;;6.90;1.60;;;;;;;7.22;73.73;100995.13;5053377;28;20280;-77
2024/04/08 04:53:20;;;;;;;7.37;1.90;;;;;;;7.22;73.45;100998.59;5051753;28;20727;-76
2024/04/08 04:55:52;;;;;;;8.90;2.00;;;;;;;7.21;73.87;100996.03;5050675;28;20206;-76
2024/04/08 04:58:19;;;;;;;6.83;2.07;;;;;;;7.21;73.89;100999.47;5048409;28;20216;-76
2024/04/08 05:00:48;;;;;;;7.50;2.17;;;;;;;7.21;73.87;100998.63;5040287;28;20211;-75
2024/04/08 05:03:14;;;;;;;6.73;2.10;;;;;;;7.20;73.51;101005.56;5052215;28;20235;-75
2024/04/08 05:05:41;;;;;;;8.67;1.70;;;;;;;7.20;73.80;100999.50;5046780;28;20232;-76
2024/04/08 05:08:08;;;;;;;8.80;2.20;;;;;;;7.19;73.73;100998.63;5043130;28;20194;-76
2024/04/08 05:10:36;;;;;;;8.37;2.20;;;;;;;7.19;73.94;100998.63;5049421;28;20231;-75
2024/04/08 05:13:02;;;;;;;4.97;1.47;;;;;;;7.20;74.04;101000.38;5018032;28;20219;-75
2024/04/08 05:15:31;;;;;;;4.50;2.20;;;;;;;7.20;73.32;100995.16;5025204;28;20207;-76
2024/04/08 05:17:57;;;;;;;5.97;1.60;;;;;;;7.19;74.09;100998.63;5027732;28;20659;-78
2024/04/08 05:20:25;;;;;;;6.73;2.03;;;;;;;7.20;73.74;100995.16;5029471;28;20208;-75
2024/04/08 05:22:52;;;;;;;8.37;2.07;;;;;;;7.19;73.77;101006.44;5030029;28;20200;-76
2024/04/08 05:25:21;;;;;;;8.70;1.97;;;;;;;7.22;74.08;101013.34;5030412;28;20234;-76
2024/04/08 05:27:46;;;;;;;7.93;2.10;;;;;;;7.22;74.17;101011.63;5025784;28;20202;-77
2024/04/08 05:30:14;;;;;;;14.90;2.40;;;;;;;7.23;73.87;101005.56;5024321;28;20194;-77
2024/04/08 05:32:39;;;;;;;5.03;1.50;;;;;;;7.24;74.23;100994.25;5029153;28;20212;-78
2024/04/08 05:35:09;;;;;;;8.97;2.10;;;;;;;7.25;74.25;101005.53;5027388;28;20587;-79
2024/04/08 05:37:35;;;;;;;4.93;1.67;;;;;;;7.26;73.81;100995.13;5029965;28;20205;-79
2024/04/08 05:40:02;;;;;;;8.63;2.20;;;;;;;7.28;74.03;100993.41;5025132;28;20204;-75
2024/04/08 05:42:29;;;;;;;4.00;1.97;;;;;;;7.29;73.88;100997.72;5026305;28;20231;-77
2024/04/08 05:44:57;;;;;;;6.43;1.73;;;;;;;7.31;73.77;101001.19;5026624;28;20231;-77
2024/04/08 05:47:23;;;;;;;7.50;1.60;;;;;;;7.32;73.66;101002.91;5024802;28;20205;-77
2024/04/08 05:49:50;;;;;;;7.57;1.70;;;;;;;7.34;73.83;101008.97;5022173;28;20768;-76
2024/04/08 05:52:17;;;;;;;8.47;2.20;;;;;;;7.36;74.02;101008.09;5025999;28;20208;-77
2024/04/08 05:54:44;;;;;;;7.27;1.80;;;;;;;7.38;73.75;100998.53;5024301;28;20214;-76
2024/04/08 05:57:11;;;;;;;6.93;1.80;;;;;;;7.41;73.56;101001.16;5027518;28;20287;-77
2024/04/08 05:59:43;;;;;;;7.80;2.00;;;;;;;7.43;73.37;100996.81;5031105;28;20213;-75
2024/04/08 06:02:10;;;;;;;5.77;1.63;;;;;;;7.45;73.55;101011.56;5029894;28;20205;-77
2024/04/08 06:04:37;;;;;;;8.50;1.90;;;;;;;7.49;73.74;101007.19;5034516;28;20285;-75
2024/04/08 06:07:04;;;;;;;7.70;2.03;;;;;;;7.50;73.89;101007.16;5029704;28;20256;-76
2024/04/08 06:09:31;;;;;;;5.53;1.70;;;;;;;7.54;73.43;101011.50;5026643;28;20200;-77
2024/04/08 06:11:57;;;;;;;9.57;2.17;;;;;;;7.57;73.81;101005.41;5030321;28;20252;-75
2024/04/08 06:14:24;;;;;;;8.77;1.80;;;;;;;7.61;73.66;101014.91;5027128;28;20205;-78
2024/04/08 06:16:51;;;;;;;6.60;1.83;;;;;;;7.63;73.65;101020.97;5028249;28;20197;-76
2024/04/08 06:19:18;;;;;;;4.70;1.73;;;;;;;7.67;73.33;101020.06;5038279;28;20209;-78
2024/04/08 06:21:44;;;;;;;7.30;1.90;;;;;;;7.65;73.44;101019.25;5023954;28;20283;-78
2024/04/08 06:24:11;;;;;;;6.00;1.80;;;;;;;7.64;73.44;101014.88;5038317;28;20233;-77
2024/04/08 06:26:37;;;;;;;6.80;1.80;;;;;;;7.79;73.12;101034.75;5033833;28;20643;-77
2024/04/08 06:29:04;;;;;;;5.13;2.00;;;;;;;7.81;73.14;101033.00;5034827;28;20193;-76
2024/04/08 06:31:30;;;;;;;5.63;1.63;;;;;;;7.87;73.35;101035.56;5028878;28;20198;-76
2024/04/08 06:34:01;;;;;;;7.70;2.00;;;;;;;7.90;73.08;101042.50;5024091;28;20274;-75
2024/04/08 06:36:29;;;;;;;5.07;1.80;;;;;;;7.92;72.93;101035.53;5022744;28;20660;-78
2024/04/08 06:38:56;;;;;;;7.73;1.67;;;;;;;7.98;72.96;101030.28;5031735;28;20207;-78
2024/04/08 06:41:22;;;;;;;11.30;1.90;;;;;;;8.04;72.93;101031.97;5030204;28;20239;-76
2024/04/08 06:43:49;;;;;;;4.53;1.60;;;;;;;8.08;72.55;101037.16;5023584;28;20227;-78
2024/04/08 06:46:15;;;;;;;5.57;1.60;;;;;;;8.12;72.53;101023.22;5029063;28;20198;-78
2024/04/08 06:48:43;;;;;;;8.83;1.60;;;;;;;8.18;72.52;101028.34;5038503;28;20218;-77
2024/04/08 06:51:11;;;;;;;8.27;1.73;;;;;;;8.20;72.52;101021.41;5023249;28;20682;-77
2024/04/08 06:53:38;;;;;;;4.80;1.70;;;;;;;8.26;72.39;101017.03;5027820;28;20209;-77
2024/04/08 06:56:04;;;;;;;6.03;1.90;;;;;;;8.34;72.46;101026.50;5027899;28;20210;-77
2024/04/08 06:58:32;;;;;;;7.70;1.90;;;;;;;8.42;71.79;101021.19;5036883;28;20198;-77
2024/04/08 07:00:58;;;;;;;8.73;1.40;;;;;;;8.50;72.03;101021.97;5007788;28;20204;-75
2024/04/08 07:03:25;;;;;;;6.20;1.50;;;;;;;8.59;71.96;101024.50;5021069;28;20305;-77
2024/04/08 07:05:51;;;;;;;6.23;1.80;;;;;;;8.69;71.87;101009.63;5023994;28;20221;-77
2024/04/08 07:08:19;;;;;;;6.20;1.77;;;;;;;8.78;71.35;101003.44;5027810;28;20291;-77
2024/04/08 07:10:46;;;;;;;6.10;1.70;;;;;;;8.90;71.60;101008.50;5027910;28;20209;-76
2024/04/08 07:13:13;;;;;;;6.07;1.70;;;;;;;9.01;70.94;101001.41;5028048;28;20293;-77
2024/04/08 07:15:39;;;;;;;6.37;1.40;;;;;;;9.12;71.06;101006.50;5030315;28;20207;-76
2024/04/08 07:18:06;;;;;;;4.70;1.67;;;;;;;9.22;70.94;101005.50;5024211;28;20298;-78
2024/04/08 07:20:34;;;;;;;7.37;1.60;;;;;;;9.32;70.73;100990.59;5020922;28;20276;-77
2024/04/08 07:23:03;;;;;;;6.90;1.67;;;;;;;9.47;70.53;101006.06;5025733;28;20224;-77
2024/04/08 07:25:31;;;;;;;6.80;1.80;;;;;;;9.59;69.77;101005.03;5029265;28;20624;-77
2024/04/08 07:27:58;;;;;;;6.23;1.70;;;;;;;9.71;70.47;101003.97;5028264;28;20206;-76
2024/04/08 07:30:23;;;;;;;5.00;2.00;;;;;;;9.84;70.27;101000.25;5031372;28;20307;-78
2024/04/08 07:32:51;;;;;;;6.03;1.53;;;;;;;9.97;70.03;100996.56;5035752;28;20231;-78
2024/04/08 07:35:20;;;;;;;8.23;1.53;;;;;;;10.13;69.32;101004.16;5030762;28;20207;-78
2024/04/08 07:37:48;;;;;;;7.67;2.03;;;;;;;10.27;69.23;100999.56;5037206;28;20215;-78
2024/04/08 07:40:15;;;;;;;9.77;1.60;;;;;;;10.39;68.84;101003.72;5028487;28;20200;-77
2024/04/08 07:42:47;;;;;;;3.40;1.63;;;;;;;10.56;68.41;101009.47;5027111;28;20236;-76
2024/04/08 07:45:13;;;;;;;5.13;1.70;;;;;;;10.70;68.59;100998.75;5013897;28;20315;-75
2024/04/08 07:47:40;;;;;;;4.83;1.63;;;;;;;10.83;67.97;101002.84;5011793;28;20235;-77
2024/04/08 07:50:08;;;;;;;4.97;1.63;;;;;;;10.93;67.65;100999.19;5013942;28;20662;-76
2024/04/08 07:52:38;;;;;;;6.57;1.60;;;;;;;11.12;67.63;101006.63;5007359;28;20204;-77
2024/04/08 07:55:05;;;;;;;4.77;1.50;;;;;;;11.27;67.74;101010.72;5011271;28;20264;-78
2024/04/08 07:57:32;;;;;;;3.87;1.40;;;;;;;11.42;67.34;101001.66;5006709;28;20215;-74
2024/04/08 07:59:59;;;;;;;5.60;1.90;;;;;;;11.54;66.86;101014.47;5003323;28;20212;-74
2024/04/08 08:02:27;;;;;;;3.47;1.30;;;;;;;11.66;66.79;101003.69;5004606;28;20663;-74
2024/04/08 08:04:53;;;;;;;3.37;1.30;;;;;;;11.79;66.61;101002.50;5001073;28;20228;-74
2024/04/08 08:07:20;;;;;;;2.93;1.23;;;;;;;11.92;66.56;101002.19;5007171;28;20259;-74
2024/04/08 08:09:47;;;;;;;4.77;1.43;;;;;;;12.01;66.37;101000.22;5004810;28;20267;-75
2024/04/08 08:12:14;;;;;;;4.13;1.20;;;;;;;12.10;66.18;101003.53;5010490;28;20204;-74
2024/04/08 08:14:41;;;;;;;4.00;1.50;;;;;;;12.17;66.00;101008.56;5009716;28;20197;-74
2024/04/08 08:17:09;;;;;;;3.00;1.20;;;;;;;12.24;65.80;101002.28;5011278;28;20190;-74
2024/04/08 08:19:36;;;;;;;4.80;1.40;;;;;;;12.32;65.57;101015.22;5013709;28;20196;-75
2024/04/08 08:22:03;;;;;;;5.43;1.40;;;;;;;12.38;65.30;101006.34;5010498;28;20203;-75
2024/04/08 08:24:31;;;;;;;4.27;1.10;;;;;;;12.44;65.06;101009.66;5004439;28;20233;-76
2024/04/08 08:26:58;;;;;;;6.80;1.17;;;;;;;12.50;65.18;101016.50;5006685;28;20197;-75
2024/04/08 08:29:23;;;;;;;5.03;1.47;;;;;;;12.54;64.71;101023.38;5005190;28;20210;-77
2024/04/08 08:31:50;;;;;;;4.47;1.27;;;;;;;12.57;64.62;101025.91;5008850;28;20202;-76
2024/04/08 08:34:19;;;;;;;2.40;1.03;;;;;;;12.63;64.55;101019.66;5007589;28;20205;-75
2024/04/08 08:36:48;;;;;;;2.77;1.30;;;;;;;12.64;64.67;101021.38;5007435;28;20759;-78
2024/04/08 08:39:15;;;;;;;3.00;1.23;;;;;;;12.62;64.87;101018.78;5029052;28;20228;-78
2024/04/08 08:41:42;;;;;;;2.40;0.97;;;;;;;12.75;64.74;101028.97;5030937;28;20261;-76
2024/04/08 08:44:10;;;;;;;4.83;1.40;;;;;;;12.80;64.82;101019.19;5042061;28;20713;-77
2024/04/08 08:46:37;;;;;;;7.87;1.93;;;;;;;12.82;64.37;101020.00;5051868;28;20210;-76
2024/04/08 08:49:06;;;;;;;3.23;1.33;;;;;;;12.87;64.77;101018.13;5046290;28;20291;-75
2024/04/08 08:51:34;;;;;;;3.67;1.70;;;;;;;12.91;64.86;101020.59;5050301;28;20596;-74
2024/04/08 08:54:00;;;;;;;4.53;1.47;;;;;;;12.95;64.98;101019.63;5048026;28;20665;-76
2024/04/08 08:56:30;;;;;;;3.17;1.30;;;;;;;13.00;65.05;101019.47;5047314;28;20281;-75
2024/04/08 08:58:58;;;;;;;4.87;1.40;;;;;;;13.06;64.54;101018.44;5049443;28;20251;-78
2024/04/08 09:01:25;;;;;;;3.73;1.23;;;;;;;13.12;64.94;101013.88;5046605;28;20237;-76
2024/04/08 09:03:53;;;;;;;2.57;1.43;;;;;;;13.16;64.71;100999.75;5055217;28;20289;-76
2024/04/08 09:06:20;;;;;;;2.50;1.10;;;;;;;13.22;64.75;101003.09;5054429;28;20225;-78
2024/04/08 09:08:49;;;;;;;3.03;1.20;;;;;;;13.27;64.29;101006.44;5048073;28;20203;-75
2024/04/08 09:11:16;;;;;;;4.07;1.60;;;;;;;13.29;63.79;101002.88;5045036;28;20274;-76
2024/04/08 09:13:44;;;;;;;1.40;0.87;;;;;;;13.37;63.72;101002.63;5056129;28;20199;-76
2024/04/08 09:16:10;;;;;;;4.70;1.40;;;;;;;13.39;63.27;101013.97;5046912;28;20205;-75
2024/04/08 09:18:37;;;;;;;2.17;1.00;;;;;;;13.42;63.13;100995.47;5047119;28;20220;-75
2024/04/08 09:21:03;;;;;;;3.77;1.67;;;;;;;13.46;62.92;100989.22;5049415;28;20206;-77
2024/04/08 09:23:35;;;;;;;3.00;1.30;;;;;;;13.48;62.84;101004.94;5048229;28;20217;-76
2024/04/08 09:26:02;;;;;;;1.90;1.10;;;;;;;13.50;62.59;100995.22;5050314;28;20222;-76
2024/04/08 09:28:29;;;;;;;4.70;1.20;;;;;;;13.52;62.77;100999.56;5049505;28;20200;-78
2024/04/08 09:30:56;;;;;;;2.30;1.20;;;;;;;13.55;62.32;100986.34;5050120;28;20286;-74
2024/04/08 09:33:23;;;;;;;3.07;1.00;;;;;;;13.59;62.33;100994.97;5044810;28;20745;-78
2024/04/08 09:35:50;;;;;;;2.37;1.00;;;;;;;13.61;62.18;101007.16;5048743;28;20661;-74
2024/04/08 09:38:20;;;;;;;4.27;1.10;;;;;;;13.62;61.96;101006.25;5050315;28;20214;-78
2024/04/08 09:40:50;;;;;;;3.07;1.20;;;;;;;13.62;61.40;101003.63;5051313;28;20206;-77
2024/04/08 09:43:27;;;;;;;5.37;1.33;;;;;;;13.55;61.56;100981.06;5049568;28;20630;-81
2024/04/08 09:45:55;;;;;;;2.87;1.20;;;;;;;13.66;62.12;101003.50;5031771;28;20232;-83
2024/04/08 09:48:23;;;;;;;4.47;1.00;;;;;;;13.69;62.03;101008.72;5036413;28;20677;-81
2024/04/08 09:50:51;;;;;;;3.27;1.30;;;;;;;13.69;61.96;100985.03;5029768;28;20208;-78
2024/04/08 09:53:18;;;;;;;1.87;1.30;;;;;;;13.71;61.72;100991.09;5044819;28;20532;-77
2024/04/08 09:55:50;;;;;;;3.30;1.20;;;;;;;13.72;61.63;100992.81;5051172;28;20199;-75
2024/04/08 09:58:19;;;;;;;2.63;1.10;;;;;;;13.76;61.50;100995.28;5049921;28;20198;-76
2024/04/08 10:00:46;;;;;;;2.63;1.10;;;;;;;13.77;61.81;101001.41;5045683;28;20606;-75
2024/04/08 10:03:16;;;;;;;1.50;1.10;;;;;;;13.81;61.73;100997.78;5048541;28;20210;-78
2024/04/08 10:05:42;;;;;;;4.30;1.90;;;;;;;13.81;61.30;100989.91;5053274;28;20235;-77
2024/04/08 10:08:11;;;;;;;3.20;1.10;;;;;;;13.79;61.66;100989.94;5053618;28;20215;-76
2024/04/08 10:10:38;;;;;;;5.00;1.70;;;;;;;13.82;61.44;100991.59;5048157;28;20699;-78
2024/04/08 10:13:10;;;;;;;2.67;1.03;;;;;;;13.82;61.66;100989.81;5049742;28;20206;-75
2024/04/08 10:15:38;;;;;;;2.80;1.20;;;;;;;13.84;61.52;100985.38;5051769;28;20213;-76
2024/04/08 10:18:07;;;;;;;3.63;1.30;;;;;;;13.84;61.56;100987.16;5050578;28;20568;-78
2024/04/08 10:20:33;;;;;;;4.27;1.50;;;;;;;13.86;61.55;100982.72;5058679;28;20237;-76
2024/04/08 10:23:00;;;;;;;4.43;1.80;;;;;;;13.88;61.54;100982.66;5053646;28;20204;-77
2024/04/08 10:25:31;;;;;;;1.80;1.27;;;;;;;13.88;61.25;100972.97;5051580;28;20266;-76
2024/04/08 10:28:05;;;;;;;4.73;1.10;;;;;;;13.89;61.36;100979.13;5055323;28;20232;-77
2024/04/08 10:30:32;;;;;;;3.83;1.33;;;;;;;13.88;61.16;100985.28;5054066;28;20202;-75
2024/04/08 10:33:01;;;;;;;3.57;1.37;;;;;;;13.91;61.39;100969.41;5050514;28;20214;-75
2024/04/08 10:35:28;;;;;;;4.30;1.40;;;;;;;13.91;61.55;100967.63;5049698;28;20203;-78
2024/04/08 10:37:56;;;;;;;2.97;1.10;;;;;;;13.91;61.47;100966.75;5049541;28;20314;-80
2024/04/08 10:40:23;;;;;;;3.80;2.13;;;;;;;13.93;60.97;100965.81;5049264;28;20199;-77
2024/04/08 10:42:52;;;;;;;3.47;1.30;;;;;;;13.94;60.87;100964.03;5051006;28;20231;-78
2024/04/08 10:45:19;;;;;;;3.90;1.40;;;;;;;13.95;61.26;100952.63;5047812;28;20754;-78
2024/04/08 10:47:46;;;;;;;4.53;1.10;;;;;;;13.96;61.66;100965.69;5053681;28;20248;-76
2024/04/08 10:50:15;;;;;;;1.97;1.00;;;;;;;13.97;61.43;100970.06;5050741;28;20257;-77
2024/04/08 10:52:43;;;;;;;3.70;1.13;;;;;;;13.98;61.35;100969.16;5044849;28;20198;-77
2024/04/08 10:55:09;;;;;;;1.80;1.07;;;;;;;14.00;61.44;100972.59;5046696;28;20321;-77
2024/04/08 10:57:36;;;;;;;2.77;1.10;;;;;;;13.96;61.38;100960.44;5045246;28;20221;-77
2024/04/08 11:00:03;;;;;;;1.97;1.20;;;;;;;14.00;61.28;100972.59;5052149;28;20198;-78
2024/04/08 11:02:30;;;;;;;1.53;1.17;;;;;;;14.02;61.59;100970.75;5041171;28;20239;-77
2024/04/08 11:04:56;;;;;;;2.93;1.47;;;;;;;14.03;61.53;100967.22;5049641;28;20226;-78
2024/04/08 11:07:24;;;;;;;3.43;1.17;;;;;;;14.03;61.39;100969.88;5046187;28;20268;-78
2024/04/08 11:09:50;;;;;;;2.30;1.00;;;;;;;14.04;61.27;100968.94;5044082;28;20196;-77
2024/04/08 11:12:17;;;;;;;2.37;1.10;;;;;;;14.03;61.72;100969.88;5049397;28;20298;-76
2024/04/08 11:14:45;;;;;;;3.47;1.57;;;;;;;14.06;61.24;100982.91;5049253;28;20226;-77
2024/04/08 11:17:15;;;;;;;2.60;1.23;;;;;;;14.07;61.35;100981.97;5048701;28;20204;-76
2024/04/08 11:19:43;;;;;;;2.87;1.33;;;;;;;14.08;61.24;100982.84;5045526;28;20505;-76
2024/04/08 11:22:11;;;;;;;3.67;1.40;;;;;;;14.10;61.27;100980.16;5053819;28;20569;-79
2024/04/08 11:24:41;;;;;;;4.77;1.30;;;;;;;14.12;61.53;100978.34;5047811;28;20290;-75
2024/04/08 11:27:09;;;;;;;2.97;1.40;;;;;;;14.13;61.22;100975.66;5046629;28;20203;-79
2024/04/08 11:29:35;;;;;;;5.17;1.30;;;;;;;14.13;60.99;100972.16;5047153;28;20199;-75